Terminal Aerodrome Forecast
Issued by NWS

Home | Current Version | Previous Version | Text Only | Print | Product List | Glossary On
Versions: 1 2 3 4 5 6 7 8 9 10 11 12 13 14 15 16 17 18 19 20 21 22 23 24 25 26
000
FTAK31 PAFA 240528
TAFAGA
TAF
PAGA 240528Z 2406/2506 09010KT P6SM VCSH BKN035 BKN050 OVC100
     FM241500 09015KT 6SM -RASN BR BKN025 BKN035 OVC050=

USA.gov is the U.S. government's official web portal to all federal, state and local government web resources and services.